LAN208 SCEL-SCIE
Flight info
| Callsign | LAN208 |
|---|---|
| Flight time | 0h 43m |
| Altitude | 29000 |
| Route | GELUS5B GELUS UQ809 ARUNI ARUNI6C |
| Aircraft | A321/M-SDE3FGHIRWY/LB1 |
Departure
| Time | 2026-04-22 02:21 |
|---|---|
| Airport | Comodoro Arturo Merino Benítez International Airport (SCEL) |
Arrival
| Time | 2026-04-22 03:04 |
|---|---|
| Airport | Carriel Sur International Airport (SCIE) |
| Time | Latitude | Longitude | Altitude | Speed | Heading |
|---|---|---|---|---|---|
| 2026-04-22 01:50 | -33.39746 | -70.79736 | 1565 ft | 0 kts | 355° |
| 2026-04-22 02:03 | -33.39755 | -70.79735 | 1565 ft | 4 kts | 354° |
| 2026-04-22 02:03 | -33.39782 | -70.79731 | 1565 ft | 4 kts | 347° |
| 2026-04-22 02:03 | -33.39807 | -70.79721 | 1565 ft | 4 kts | 324° |
| 2026-04-22 02:03 | -33.39819 | -70.79702 | 1565 ft | 1 kts | 268° |
| 2026-04-22 02:04 | -33.39819 | -70.79701 | 1565 ft | 0 kts | 267° |
| 2026-04-22 02:07 | -33.39819 | -70.79705 | 1565 ft | 2 kts | 267° |
| 2026-04-22 02:08 | -33.39821 | -70.79758 | 1565 ft | 7 kts | 267° |
| 2026-04-22 02:08 | -33.39823 | -70.79816 | 1565 ft | 7 kts | 268° |
| 2026-04-22 02:08 | -33.39838 | -70.79880 | 1565 ft | 10 kts | 248° |
| 2026-04-22 02:08 | -33.39845 | -70.79956 | 1565 ft | 10 kts | 266° |
| 2026-04-22 02:09 | -33.39831 | -70.80022 | 1566 ft | 9 kts | 326° |
| 2026-04-22 02:09 | -33.39754 | -70.80033 | 1566 ft | 13 kts | 359° |
| 2026-04-22 02:09 | -33.39648 | -70.80036 | 1566 ft | 17 kts | 356° |
| 2026-04-22 02:09 | -33.39520 | -70.80043 | 1566 ft | 20 kts | 357° |
| 2026-04-22 02:10 | -33.39379 | -70.80051 | 1566 ft | 20 kts | 357° |
| 2026-04-22 02:10 | -33.39245 | -70.80059 | 1566 ft | 19 kts | 357° |
| 2026-04-22 02:10 | -33.39119 | -70.80066 | 1566 ft | 18 kts | 357° |
| 2026-04-22 02:10 | -33.39002 | -70.80073 | 1567 ft | 16 kts | 357° |
| 2026-04-22 02:11 | -33.38894 | -70.80079 | 1567 ft | 15 kts | 357° |
| 2026-04-22 02:11 | -33.38793 | -70.80084 | 1567 ft | 14 kts | 358° |
| 2026-04-22 02:11 | -33.38700 | -70.80089 | 1567 ft | 13 kts | 357° |
| 2026-04-22 02:11 | -33.38614 | -70.80094 | 1567 ft | 12 kts | 358° |
| 2026-04-22 02:12 | -33.38537 | -70.80098 | 1567 ft | 10 kts | 357° |
| 2026-04-22 02:12 | -33.38468 | -70.80102 | 1567 ft | 9 kts | 357° |
| 2026-04-22 02:12 | -33.38405 | -70.80106 | 1566 ft | 9 kts | 357° |
| 2026-04-22 02:12 | -33.38348 | -70.80109 | 1566 ft | 8 kts | 358° |
| 2026-04-22 02:13 | -33.38297 | -70.80111 | 1566 ft | 7 kts | 358° |
| 2026-04-22 02:13 | -33.38255 | -70.80113 | 1566 ft | 5 kts | 358° |
| 2026-04-22 02:13 | -33.38223 | -70.80115 | 1566 ft | 4 kts | 358° |
| 2026-04-22 02:13 | -33.38201 | -70.80116 | 1566 ft | 2 kts | 358° |
| 2026-04-22 02:14 | -33.38188 | -70.80117 | 1566 ft | 2 kts | 358° |
| 2026-04-22 02:14 | -33.38145 | -70.80119 | 1566 ft | 11 kts | 358° |
| 2026-04-22 02:14 | -33.38038 | -70.80125 | 1566 ft | 20 kts | 358° |
| 2026-04-22 02:14 | -33.37871 | -70.80133 | 1566 ft | 26 kts | 357° |
| 2026-04-22 02:15 | -33.37693 | -70.80143 | 1566 ft | 25 kts | 358° |
| 2026-04-22 02:15 | -33.37523 | -70.80151 | 1566 ft | 24 kts | 356° |
| 2026-04-22 02:15 | -33.37361 | -70.80160 | 1567 ft | 23 kts | 358° |
| 2026-04-22 02:15 | -33.37208 | -70.80168 | 1567 ft | 20 kts | 357° |
| 2026-04-22 02:16 | -33.37122 | -70.80204 | 1567 ft | 12 kts | 311° |
| 2026-04-22 02:16 | -33.37102 | -70.80276 | 1571 ft | 6 kts | 272° |
| 2026-04-22 02:16 | -33.37104 | -70.80297 | 1572 ft | 0 kts | 262° |
| 2026-04-22 02:16 | -33.37105 | -70.80308 | 1573 ft | 3 kts | 262° |
| 2026-04-22 02:17 | -33.37133 | -70.80358 | 1574 ft | 13 kts | 220° |
| 2026-04-22 02:17 | -33.37216 | -70.80373 | 1573 ft | 8 kts | 177° |
| 2026-04-22 02:17 | -33.37222 | -70.80372 | 1573 ft | 0 kts | 176° |
| 2026-04-22 02:20 | -33.37430 | -70.80361 | 1574 ft | 66 kts | 177° |
| 2026-04-22 02:20 | -33.38110 | -70.80324 | 1572 ft | 126 kts | 178° |
| 2026-04-22 02:20 | -33.39145 | -70.80270 | 1578 ft | 169 kts | 178° |
| 2026-04-22 02:21 | -33.40324 | -70.80219 | 2132 ft | 166 kts | 178° |
| 2026-04-22 02:21 | -33.41476 | -70.80162 | 2723 ft | 169 kts | 177° |
| 2026-04-22 02:21 | -33.42723 | -70.80086 | 2968 ft | 190 kts | 177° |
| 2026-04-22 02:21 | -33.44108 | -70.79997 | 3160 ft | 209 kts | 177° |
| 2026-04-22 02:22 | -33.45651 | -70.79904 | 3317 ft | 235 kts | 177° |
| 2026-04-22 02:22 | -33.47371 | -70.79803 | 3690 ft | 257 kts | 176° |
| 2026-04-22 02:22 | -33.49191 | -70.79795 | 4373 ft | 267 kts | 189° |
| 2026-04-22 02:22 | -33.50861 | -70.80769 | 5087 ft | 274 kts | 225° |
| 2026-04-22 02:23 | -33.51831 | -70.82727 | 5816 ft | 277 kts | 256° |
| 2026-04-22 02:23 | -33.52173 | -70.84998 | 6621 ft | 278 kts | 267° |
| 2026-04-22 02:23 | -33.52370 | -70.87312 | 7417 ft | 280 kts | 267° |
| 2026-04-22 02:23 | -33.52565 | -70.89636 | 8260 ft | 281 kts | 267° |
| 2026-04-22 02:24 | -33.52761 | -70.91977 | 8820 ft | 284 kts | 267° |
| 2026-04-22 02:24 | -33.53099 | -70.94314 | 8982 ft | 286 kts | 257° |
| 2026-04-22 02:24 | -33.53997 | -70.96450 | 9010 ft | 291 kts | 236° |
| 2026-04-22 02:24 | -33.55444 | -70.98172 | 9119 ft | 299 kts | 219° |
| 2026-04-22 02:25 | -33.57261 | -70.99416 | 9889 ft | 303 kts | 209° |
| 2026-04-22 02:25 | -33.59179 | -71.00557 | 10377 ft | 317 kts | 210° |
| 2026-04-22 02:25 | -33.61217 | -71.01805 | 10568 ft | 340 kts | 210° |
| 2026-04-22 02:25 | -33.63365 | -71.03136 | 10981 ft | 352 kts | 210° |
| 2026-04-22 02:26 | -33.65559 | -71.04491 | 11648 ft | 357 kts | 210° |
| 2026-04-22 02:26 | -33.67781 | -71.05852 | 12351 ft | 360 kts | 210° |
| 2026-04-22 02:26 | -33.70025 | -71.07219 | 13068 ft | 363 kts | 211° |
| 2026-04-22 02:26 | -33.72284 | -71.08594 | 13786 ft | 365 kts | 211° |
| 2026-04-22 02:27 | -33.74561 | -71.09979 | 14444 ft | 368 kts | 211° |
| 2026-04-22 02:27 | -33.76849 | -71.11372 | 15093 ft | 369 kts | 211° |
| 2026-04-22 02:27 | -33.79151 | -71.12772 | 15734 ft | 372 kts | 211° |
| 2026-04-22 02:27 | -33.81437 | -71.14161 | 16382 ft | 374 kts | 211° |
| 2026-04-22 02:28 | -33.83766 | -71.15578 | 17035 ft | 376 kts | 212° |
| 2026-04-22 02:28 | -33.86109 | -71.17006 | 17674 ft | 379 kts | 212° |
| 2026-04-22 02:28 | -33.88469 | -71.18447 | 18314 ft | 381 kts | 212° |
| 2026-04-22 02:28 | -33.90841 | -71.19897 | 18874 ft | 383 kts | 212° |
| 2026-04-22 02:29 | -33.93223 | -71.21354 | 19403 ft | 386 kts | 212° |
| 2026-04-22 02:29 | -33.95624 | -71.22825 | 19904 ft | 388 kts | 213° |
| 2026-04-22 02:29 | -33.98034 | -71.24303 | 20421 ft | 390 kts | 213° |
| 2026-04-22 02:29 | -34.00459 | -71.25791 | 20919 ft | 392 kts | 213° |
| 2026-04-22 02:30 | -34.02900 | -71.27291 | 21419 ft | 395 kts | 213° |
| 2026-04-22 02:30 | -34.05362 | -71.28804 | 21876 ft | 399 kts | 213° |
| 2026-04-22 02:30 | -34.07837 | -71.30325 | 22405 ft | 400 kts | 214° |
| 2026-04-22 02:30 | -34.10324 | -71.31850 | 22932 ft | 402 kts | 214° |
| 2026-04-22 02:31 | -34.12823 | -71.33382 | 23426 ft | 404 kts | 214° |
| 2026-04-22 02:31 | -34.15331 | -71.34924 | 23865 ft | 406 kts | 214° |
| 2026-04-22 02:31 | -34.17858 | -71.36478 | 24258 ft | 408 kts | 214° |
| 2026-04-22 02:31 | -34.20395 | -71.38040 | 24649 ft | 410 kts | 214° |
| 2026-04-22 02:32 | -34.22945 | -71.39612 | 25045 ft | 412 kts | 214° |
| 2026-04-22 02:32 | -34.25503 | -71.41191 | 25442 ft | 413 kts | 214° |
| 2026-04-22 02:32 | -34.28070 | -71.42779 | 25829 ft | 415 kts | 214° |
| 2026-04-22 02:32 | -34.30650 | -71.44375 | 26208 ft | 417 kts | 214° |
| 2026-04-22 02:33 | -34.33206 | -71.45953 | 26604 ft | 419 kts | 214° |
| 2026-04-22 02:33 | -34.35805 | -71.47559 | 26983 ft | 421 kts | 214° |
| 2026-04-22 02:33 | -34.38419 | -71.49175 | 27347 ft | 422 kts | 214° |
| 2026-04-22 02:33 | -34.41044 | -71.50798 | 27709 ft | 424 kts | 214° |
| 2026-04-22 02:34 | -34.43684 | -71.52431 | 28063 ft | 426 kts | 214° |
| 2026-04-22 02:34 | -34.46330 | -71.54070 | 28411 ft | 428 kts | 214° |
| 2026-04-22 02:34 | -34.48987 | -71.55719 | 28757 ft | 430 kts | 214° |
| 2026-04-22 02:34 | -34.51653 | -71.57380 | 29097 ft | 432 kts | 213° |
| 2026-04-22 02:35 | -34.54325 | -71.59040 | 29210 ft | 427 kts | 213° |
| 2026-04-22 02:35 | -34.59525 | -71.62252 | 29248 ft | 416 kts | 213° |
| 2026-04-22 02:36 | -34.64664 | -71.65450 | 29222 ft | 414 kts | 214° |
| 2026-04-22 02:36 | -34.69750 | -71.68629 | 29221 ft | 414 kts | 214° |
| 2026-04-22 02:37 | -34.74874 | -71.71840 | 29224 ft | 414 kts | 214° |
| 2026-04-22 02:37 | -34.79995 | -71.75039 | 29222 ft | 414 kts | 214° |
| 2026-04-22 02:38 | -34.85114 | -71.78238 | 29220 ft | 414 kts | 214° |
| 2026-04-22 02:38 | -34.90232 | -71.81444 | 29253 ft | 413 kts | 214° |
| 2026-04-22 02:39 | -34.95342 | -71.84656 | 29237 ft | 413 kts | 214° |
| 2026-04-22 02:39 | -35.00448 | -71.87864 | 29228 ft | 413 kts | 214° |
| 2026-04-22 02:40 | -35.05544 | -71.91074 | 29223 ft | 412 kts | 214° |
| 2026-04-22 02:40 | -35.10644 | -71.94291 | 29224 ft | 412 kts | 214° |
| 2026-04-22 02:41 | -35.15740 | -71.97513 | 29219 ft | 412 kts | 214° |
| 2026-04-22 02:41 | -35.20831 | -72.00739 | 29219 ft | 412 kts | 214° |
| 2026-04-22 02:42 | -35.25060 | -72.03418 | 29189 ft | 411 kts | 214° |
| 2026-04-22 02:42 | -35.27575 | -72.05008 | 28909 ft | 403 kts | 214° |
| 2026-04-22 02:42 | -35.30055 | -72.06575 | 28646 ft | 399 kts | 214° |
| 2026-04-22 02:42 | -35.32516 | -72.08132 | 28376 ft | 397 kts | 214° |
| 2026-04-22 02:43 | -35.34967 | -72.09687 | 28109 ft | 395 kts | 214° |
| 2026-04-22 02:43 | -35.37407 | -72.11241 | 27847 ft | 394 kts | 214° |
| 2026-04-22 02:43 | -35.39832 | -72.12790 | 27590 ft | 393 kts | 214° |
| 2026-04-22 02:43 | -35.42255 | -72.14337 | 27359 ft | 392 kts | 214° |
| 2026-04-22 02:44 | -35.44677 | -72.15880 | 27106 ft | 391 kts | 214° |
| 2026-04-22 02:44 | -35.47086 | -72.17411 | 26848 ft | 388 kts | 214° |
| 2026-04-22 02:44 | -35.49467 | -72.18923 | 26427 ft | 383 kts | 214° |
| 2026-04-22 02:44 | -35.51824 | -72.20425 | 25978 ft | 379 kts | 214° |
| 2026-04-22 02:45 | -35.54155 | -72.21916 | 25532 ft | 376 kts | 214° |
| 2026-04-22 02:45 | -35.56461 | -72.23394 | 25087 ft | 372 kts | 214° |
| 2026-04-22 02:45 | -35.58721 | -72.24844 | 24663 ft | 370 kts | 214° |
| 2026-04-22 02:45 | -35.61021 | -72.26321 | 24222 ft | 367 kts | 214° |
| 2026-04-22 02:46 | -35.63255 | -72.27755 | 23782 ft | 366 kts | 214° |
| 2026-04-22 02:46 | -35.65503 | -72.29197 | 23298 ft | 363 kts | 214° |
| 2026-04-22 02:46 | -35.67730 | -72.30626 | 22875 ft | 359 kts | 214° |
| 2026-04-22 02:46 | -35.69937 | -72.32044 | 22425 ft | 356 kts | 214° |
| 2026-04-22 02:47 | -35.72124 | -72.33448 | 21991 ft | 353 kts | 214° |
| 2026-04-22 02:47 | -35.74295 | -72.34841 | 21555 ft | 350 kts | 214° |
| 2026-04-22 02:47 | -35.76449 | -72.36226 | 21113 ft | 348 kts | 213° |
| 2026-04-22 02:47 | -35.78585 | -72.37603 | 20676 ft | 345 kts | 213° |
| 2026-04-22 02:48 | -35.80703 | -72.38967 | 20239 ft | 342 kts | 213° |
| 2026-04-22 02:48 | -35.82805 | -72.40319 | 19816 ft | 339 kts | 213° |
| 2026-04-22 02:48 | -35.84893 | -72.41664 | 19382 ft | 338 kts | 213° |
| 2026-04-22 02:48 | -35.86971 | -72.43001 | 18959 ft | 336 kts | 213° |
| 2026-04-22 02:49 | -35.89035 | -72.44344 | 18523 ft | 334 kts | 214° |
| 2026-04-22 02:49 | -35.91045 | -72.45764 | 18069 ft | 331 kts | 215° |
| 2026-04-22 02:49 | -35.92999 | -72.47228 | 17654 ft | 327 kts | 216° |
| 2026-04-22 02:49 | -35.94923 | -72.48704 | 17257 ft | 325 kts | 217° |
| 2026-04-22 02:50 | -35.96837 | -72.50177 | 16855 ft | 323 kts | 216° |
| 2026-04-22 02:50 | -35.98741 | -72.51632 | 16455 ft | 320 kts | 216° |
| 2026-04-22 02:50 | -36.00636 | -72.53070 | 16065 ft | 318 kts | 216° |
| 2026-04-22 02:50 | -36.02520 | -72.54490 | 15669 ft | 317 kts | 215° |
| 2026-04-22 02:51 | -36.04400 | -72.55901 | 15286 ft | 315 kts | 215° |
| 2026-04-22 02:51 | -36.06270 | -72.57306 | 14895 ft | 314 kts | 215° |
| 2026-04-22 02:51 | -36.08131 | -72.58705 | 14503 ft | 313 kts | 215° |
| 2026-04-22 02:51 | -36.09988 | -72.60103 | 14118 ft | 311 kts | 215° |
| 2026-04-22 02:52 | -36.11832 | -72.61494 | 13700 ft | 310 kts | 214° |
| 2026-04-22 02:52 | -36.13670 | -72.62881 | 13308 ft | 308 kts | 214° |
| 2026-04-22 02:52 | -36.15491 | -72.64254 | 12900 ft | 305 kts | 214° |
| 2026-04-22 02:52 | -36.17297 | -72.65614 | 12521 ft | 303 kts | 214° |
| 2026-04-22 02:53 | -36.19094 | -72.66965 | 12131 ft | 301 kts | 214° |
| 2026-04-22 02:53 | -36.20879 | -72.68306 | 11752 ft | 300 kts | 214° |
| 2026-04-22 02:53 | -36.22658 | -72.69645 | 11359 ft | 299 kts | 214° |
| 2026-04-22 02:53 | -36.24433 | -72.70985 | 10965 ft | 298 kts | 214° |
| 2026-04-22 02:54 | -36.26202 | -72.72324 | 10572 ft | 297 kts | 214° |
| 2026-04-22 02:54 | -36.27941 | -72.73640 | 10401 ft | 288 kts | 214° |
| 2026-04-22 02:54 | -36.29639 | -72.74924 | 10145 ft | 283 kts | 214° |
| 2026-04-22 02:54 | -36.31314 | -72.76192 | 9944 ft | 282 kts | 214° |
| 2026-04-22 02:55 | -36.32994 | -72.77468 | 9506 ft | 283 kts | 214° |
| 2026-04-22 02:55 | -36.34644 | -72.78723 | 9130 ft | 281 kts | 214° |
| 2026-04-22 02:55 | -36.36304 | -72.79981 | 8756 ft | 279 kts | 213° |
| 2026-04-22 02:55 | -36.37961 | -72.81230 | 8385 ft | 277 kts | 213° |
| 2026-04-22 02:56 | -36.39600 | -72.82463 | 8028 ft | 274 kts | 213° |
| 2026-04-22 02:56 | -36.41230 | -72.83686 | 7657 ft | 273 kts | 213° |
| 2026-04-22 02:56 | -36.42851 | -72.84903 | 7297 ft | 271 kts | 213° |
| 2026-04-22 02:56 | -36.44462 | -72.86108 | 6936 ft | 270 kts | 212° |
| 2026-04-22 02:57 | -36.46063 | -72.87306 | 6570 ft | 268 kts | 212° |
| 2026-04-22 02:57 | -36.47654 | -72.88496 | 6209 ft | 266 kts | 212° |
| 2026-04-22 02:57 | -36.49230 | -72.89674 | 5848 ft | 263 kts | 212° |
| 2026-04-22 02:57 | -36.50789 | -72.90842 | 5471 ft | 259 kts | 212° |
| 2026-04-22 02:58 | -36.52347 | -72.91844 | 5111 ft | 245 kts | 205° |
| 2026-04-22 02:58 | -36.53851 | -72.92712 | 4778 ft | 232 kts | 205° |
| 2026-04-22 02:58 | -36.55281 | -72.93537 | 4505 ft | 219 kts | 205° |
| 2026-04-22 02:58 | -36.56632 | -72.94319 | 4230 ft | 209 kts | 205° |
| 2026-04-22 02:59 | -36.57909 | -72.95061 | 3942 ft | 197 kts | 205° |
| 2026-04-22 02:59 | -36.59113 | -72.95763 | 3676 ft | 185 kts | 204° |
| 2026-04-22 02:59 | -36.60251 | -72.96426 | 3438 ft | 175 kts | 204° |
| 2026-04-22 02:59 | -36.61330 | -72.97054 | 3212 ft | 168 kts | 204° |
| 2026-04-22 03:00 | -36.62354 | -72.97647 | 2986 ft | 161 kts | 205° |
| 2026-04-22 03:00 | -36.63352 | -72.98225 | 2792 ft | 155 kts | 205° |
| 2026-04-22 03:00 | -36.64329 | -72.98792 | 2584 ft | 151 kts | 205° |
| 2026-04-22 03:00 | -36.65254 | -72.99329 | 2393 ft | 147 kts | 205° |
| 2026-04-22 03:01 | -36.66172 | -72.99861 | 2223 ft | 141 kts | 205° |
| 2026-04-22 03:01 | -36.67047 | -73.00368 | 2035 ft | 137 kts | 205° |
| 2026-04-22 03:01 | -36.67903 | -73.00865 | 1845 ft | 135 kts | 205° |
| 2026-04-22 03:01 | -36.68754 | -73.01360 | 1663 ft | 135 kts | 205° |
| 2026-04-22 03:02 | -36.69603 | -73.01852 | 1464 ft | 134 kts | 205° |
| 2026-04-22 03:02 | -36.70449 | -73.02342 | 1291 ft | 134 kts | 205° |
| 2026-04-22 03:02 | -36.71293 | -73.02833 | 1100 ft | 133 kts | 205° |
| 2026-04-22 03:02 | -36.72133 | -73.03322 | 923 ft | 133 kts | 205° |
| 2026-04-22 03:03 | -36.72981 | -73.03814 | 738 ft | 136 kts | 206° |
| 2026-04-22 03:03 | -36.73837 | -73.04311 | 564 ft | 135 kts | 206° |
| 2026-04-22 03:03 | -36.74687 | -73.04806 | 381 ft | 134 kts | 205° |
| 2026-04-22 03:03 | -36.75532 | -73.05294 | 214 ft | 134 kts | 205° |
| 2026-04-22 03:04 | -36.76361 | -73.05800 | 81 ft | 131 kts | 207° |
| 2026-04-22 03:04 | -36.77064 | -73.06208 | 63 ft | 83 kts | 205° |
| 2026-04-22 03:04 | -36.77437 | -73.06425 | 67 ft | 43 kts | 205° |
| 2026-04-22 03:04 | -36.77696 | -73.06575 | 63 ft | 39 kts | 205° |
| 2026-04-22 03:05 | -36.77874 | -73.06679 | 62 ft | 11 kts | 205° |
| 2026-04-22 03:05 | -36.77941 | -73.06691 | 66 ft | 10 kts | 158° |
| 2026-04-22 03:05 | -36.77982 | -73.06622 | 61 ft | 12 kts | 115° |
| 2026-04-22 03:05 | -36.78011 | -73.06542 | 60 ft | 7 kts | 105° |
| 2026-04-22 03:06 | -36.77989 | -73.06502 | 58 ft | 6 kts | 34° |
| 2026-04-22 03:06 | -36.77957 | -73.06481 | 60 ft | 5 kts | 25° |
| 2026-04-22 03:06 | -36.77922 | -73.06460 | 57 ft | 6 kts | 25° |
| 2026-04-22 03:06 | -36.77881 | -73.06436 | 56 ft | 7 kts | 25° |
| 2026-04-22 03:07 | -36.77835 | -73.06409 | 57 ft | 8 kts | 25° |
| 2026-04-22 03:07 | -36.77783 | -73.06378 | 53 ft | 9 kts | 25° |
| 2026-04-22 03:07 | -36.77723 | -73.06343 | 54 ft | 10 kts | 25° |
| 2026-04-22 03:07 | -36.77657 | -73.06304 | 56 ft | 11 kts | 25° |
| 2026-04-22 03:08 | -36.77582 | -73.06261 | 52 ft | 13 kts | 25° |
| 2026-04-22 03:08 | -36.77512 | -73.06208 | 54 ft | 11 kts | 53° |
| 2026-04-22 03:08 | -36.77523 | -73.06111 | 54 ft | 13 kts | 114° |
| 2026-04-22 03:08 | -36.77537 | -73.06015 | 60 ft | 8 kts | 91° |
| 2026-04-22 03:09 | -36.77558 | -73.05987 | 55 ft | 1 kts | 184° |
| 2026-04-22 03:09 | -36.77564 | -73.05987 | 57 ft | 1 kts | 181° |
| 2026-04-22 03:09 | -36.77577 | -73.05987 | 57 ft | 0 kts | 179° |
| 2026-04-22 03:09 | -36.77585 | -73.05986 | 54 ft | 3 kts | 179° |
| 2026-04-22 03:10 | -36.77597 | -73.05986 | 57 ft | 0 kts | 179° |
| 2026-04-22 03:10 | -36.77598 | -73.05986 | 58 ft | 0 kts | 179° |
| 2026-04-22 03:40 | -36.77597 | -73.05986 | 60 ft | 2 kts | 179° |
| 2026-04-22 03:40 | -36.77571 | -73.05985 | 55 ft | 4 kts | 191° |
| 2026-04-22 03:41 | -36.77547 | -73.05974 | 53 ft | 4 kts | 230° |
| 2026-04-22 03:41 | -36.77541 | -73.05957 | 57 ft | 0 kts | 275° |
| 2026-04-22 03:43 | -36.77541 | -73.05958 | 57 ft | 0 kts | 275° |
| 2026-04-22 03:43 | -36.77540 | -73.05976 | 53 ft | 4 kts | 275° |
| 2026-04-22 03:43 | -36.77538 | -73.06026 | 60 ft | 6 kts | 272° |
| 2026-04-22 03:44 | -36.77532 | -73.06076 | 60 ft | 6 kts | 283° |
| 2026-04-22 03:44 | -36.77521 | -73.06119 | 56 ft | 5 kts | 291° |
| 2026-04-22 03:44 | -36.77509 | -73.06154 | 53 ft | 4 kts | 293° |
| 2026-04-22 03:44 | -36.77494 | -73.06177 | 55 ft | 3 kts | 319° |
| 2026-04-22 03:45 | -36.77478 | -73.06185 | 56 ft | 4 kts | 345° |
| 2026-04-22 03:45 | -36.77435 | -73.06174 | 53 ft | 9 kts | 21° |
| 2026-04-22 03:45 | -36.77364 | -73.06133 | 55 ft | 12 kts | 25° |
| 2026-04-22 03:45 | -36.77293 | -73.06092 | 52 ft | 11 kts | 25° |
| 2026-04-22 03:46 | -36.77225 | -73.06053 | 58 ft | 10 kts | 25° |
| 2026-04-22 03:46 | -36.77162 | -73.06016 | 61 ft | 10 kts | 25° |
| 2026-04-22 03:46 | -36.77103 | -73.05982 | 54 ft | 9 kts | 25° |
| 2026-04-22 03:46 | -36.77048 | -73.05950 | 55 ft | 8 kts | 25° |
| 2026-04-22 03:47 | -36.76998 | -73.05920 | 52 ft | 8 kts | 25° |
| 2026-04-22 03:47 | -36.76952 | -73.05894 | 54 ft | 7 kts | 25° |
| 2026-04-22 03:47 | -36.76909 | -73.05868 | 52 ft | 7 kts | 26° |
| 2026-04-22 03:47 | -36.76866 | -73.05842 | 61 ft | 7 kts | 25° |
| 2026-04-22 03:48 | -36.76822 | -73.05817 | 60 ft | 7 kts | 25° |
| 2026-04-22 03:48 | -36.76777 | -73.05791 | 61 ft | 7 kts | 25° |
| 2026-04-22 03:48 | -36.76731 | -73.05765 | 61 ft | 7 kts | 25° |
| 2026-04-22 03:48 | -36.76685 | -73.05738 | 56 ft | 7 kts | 25° |
| 2026-04-22 03:49 | -36.76640 | -73.05712 | 55 ft | 7 kts | 25° |
| 2026-04-22 03:49 | -36.76594 | -73.05685 | 54 ft | 7 kts | 25° |
| 2026-04-22 03:49 | -36.76547 | -73.05657 | 54 ft | 8 kts | 24° |
| 2026-04-22 03:49 | -36.76467 | -73.05612 | 57 ft | 15 kts | 25° |
| 2026-04-22 03:50 | -36.76421 | -73.05589 | 56 ft | 5 kts | 13° |
| 2026-04-22 03:50 | -36.76387 | -73.05590 | 59 ft | 5 kts | 348° |
| 2026-04-22 03:50 | -36.76362 | -73.05609 | 52 ft | 4 kts | 316° |
| 2026-04-22 03:50 | -36.76344 | -73.05641 | 57 ft | 5 kts | 301° |
| 2026-04-22 03:51 | -36.76326 | -73.05681 | 57 ft | 7 kts | 299° |
| 2026-04-22 03:51 | -36.76273 | -73.05720 | 63 ft | 13 kts | 349° |
| 2026-04-22 03:51 | -36.76180 | -73.05686 | 62 ft | 12 kts | 46° |
| 2026-04-22 03:51 | -36.76154 | -73.05622 | 65 ft | 9 kts | 65° |
| 2026-04-22 03:52 | -36.76113 | -73.05625 | 62 ft | 5 kts | 318° |
| 2026-04-22 03:52 | -36.76107 | -73.05650 | 61 ft | 2 kts | 253° |
| 2026-04-22 03:52 | -36.76111 | -73.05654 | 61 ft | 0 kts | 226° |
| 2026-04-22 03:52 | -36.76122 | -73.05660 | 64 ft | 2 kts | 205° |
| 2026-04-22 03:53 | -36.76125 | -73.05662 | 65 ft | 0 kts | 205° |
| 2026-04-22 03:53 | -36.76144 | -73.05673 | 60 ft | 20 kts | 205° |
| 2026-04-22 03:54 | -36.76518 | -73.05891 | 66 ft | 95 kts | 205° |
| 2026-04-22 03:54 | -36.77298 | -73.06343 | 59 ft | 149 kts | 205° |
| 2026-04-22 03:54 | -36.78277 | -73.06941 | 499 ft | 157 kts | 206° |
| 2026-04-22 03:54 | -36.79271 | -73.07499 | 1153 ft | 156 kts | 201° |
| 2026-04-22 03:55 | -36.80380 | -73.07533 | 1585 ft | 174 kts | 164° |
| 2026-04-22 03:55 | -36.81374 | -73.06515 | 1803 ft | 205 kts | 121° |
| 2026-04-22 03:55 | -36.81644 | -73.04665 | 2020 ft | 234 kts | 91° |
| 2026-04-22 03:55 | -36.81525 | -73.02522 | 2353 ft | 259 kts | 85° |
| 2026-04-22 03:56 | -36.81300 | -73.00246 | 3152 ft | 268 kts | 84° |
| 2026-04-22 03:56 | -36.81052 | -72.97931 | 4085 ft | 271 kts | 84° |
| 2026-04-22 03:56 | -36.80809 | -72.95585 | 5027 ft | 274 kts | 84° |
| 2026-04-22 03:56 | -36.80487 | -72.93228 | 5889 ft | 280 kts | 71° |
| 2026-04-22 03:57 | -36.79458 | -72.91154 | 6667 ft | 287 kts | 43° |
| 2026-04-22 03:57 | -36.77899 | -72.89579 | 7475 ft | 290 kts | 36° |
| 2026-04-22 03:57 | -36.76293 | -72.88028 | 8316 ft | 293 kts | 36° |
| 2026-04-22 03:57 | -36.74695 | -72.86481 | 9157 ft | 297 kts | 35° |
| 2026-04-22 03:58 | -36.73055 | -72.84885 | 9988 ft | 300 kts | 35° |
| 2026-04-22 03:58 | -36.71380 | -72.83253 | 10504 ft | 315 kts | 35° |
| 2026-04-22 03:58 | -36.69590 | -72.81515 | 10718 ft | 338 kts | 35° |
| 2026-04-22 03:58 | -36.67700 | -72.79671 | 11176 ft | 350 kts | 36° |
| 2026-04-22 03:59 | -36.65769 | -72.77777 | 11859 ft | 355 kts | 35° |
| 2026-04-22 03:59 | -36.63813 | -72.75862 | 12585 ft | 360 kts | 35° |
| 2026-04-22 03:59 | -36.61832 | -72.73924 | 13311 ft | 364 kts | 35° |
| 2026-04-22 03:59 | -36.59829 | -72.71966 | 14029 ft | 369 kts | 35° |
| 2026-04-22 04:00 | -36.57796 | -72.69985 | 14667 ft | 373 kts | 34° |
| 2026-04-22 04:00 | -36.55741 | -72.67987 | 15309 ft | 376 kts | 34° |
| 2026-04-22 04:00 | -36.53667 | -72.65971 | 15978 ft | 380 kts | 34° |
| 2026-04-22 04:00 | -36.51574 | -72.63937 | 16641 ft | 383 kts | 34° |
| 2026-04-22 04:01 | -36.49463 | -72.61886 | 17299 ft | 387 kts | 34° |
| 2026-04-22 04:01 | -36.47337 | -72.59820 | 17940 ft | 390 kts | 34° |
| 2026-04-22 04:01 | -36.45220 | -72.57766 | 18591 ft | 393 kts | 34° |
| 2026-04-22 04:01 | -36.43029 | -72.55646 | 19154 ft | 395 kts | 33° |
| 2026-04-22 04:02 | -36.40882 | -72.53571 | 19701 ft | 398 kts | 33° |
| 2026-04-22 04:02 | -36.38692 | -72.51456 | 20270 ft | 400 kts | 32° |
| 2026-04-22 04:02 | -36.36491 | -72.49331 | 20835 ft | 402 kts | 32° |
| 2026-04-22 04:02 | -36.34277 | -72.47194 | 21405 ft | 404 kts | 32° |
| 2026-04-22 04:03 | -36.32053 | -72.45047 | 21967 ft | 406 kts | 31° |
| 2026-04-22 04:03 | -36.29819 | -72.42893 | 22517 ft | 408 kts | 31° |
| 2026-04-22 04:03 | -36.27569 | -72.40723 | 23062 ft | 410 kts | 31° |
| 2026-04-22 04:03 | -36.25311 | -72.38548 | 23584 ft | 412 kts | 31° |
| 2026-04-22 04:04 | -36.23038 | -72.36362 | 24055 ft | 414 kts | 30° |
| 2026-04-22 04:04 | -36.20753 | -72.34168 | 24445 ft | 417 kts | 30° |
| 2026-04-22 04:04 | -36.18455 | -72.31960 | 24836 ft | 420 kts | 30° |
| 2026-04-22 04:04 | -36.16142 | -72.29733 | 25232 ft | 423 kts | 30° |
| 2026-04-22 04:05 | -36.13812 | -72.27492 | 25596 ft | 425 kts | 30° |
| 2026-04-22 04:05 | -36.11465 | -72.25242 | 25957 ft | 429 kts | 30° |
| 2026-04-22 04:05 | -36.09095 | -72.22974 | 26291 ft | 433 kts | 30° |
| 2026-04-22 04:05 | -36.06708 | -72.20693 | 26657 ft | 436 kts | 30° |
| 2026-04-22 04:06 | -36.04247 | -72.18519 | 27020 ft | 432 kts | 23° |
| 2026-04-22 04:06 | -36.01598 | -72.16816 | 27375 ft | 428 kts | 16° |
| 2026-04-22 04:06 | -35.98877 | -72.15281 | 27736 ft | 431 kts | 16° |
| 2026-04-22 04:06 | -35.96143 | -72.13738 | 28097 ft | 433 kts | 16° |
| 2026-04-22 04:07 | -35.93395 | -72.12186 | 28445 ft | 436 kts | 16° |
| 2026-04-22 04:07 | -35.90659 | -72.10638 | 28792 ft | 439 kts | 16° |
| 2026-04-22 04:07 | -35.87879 | -72.09062 | 29131 ft | 441 kts | 16° |
| 2026-04-22 04:07 | -35.85077 | -72.07476 | 29397 ft | 445 kts | 16° |
| 2026-04-22 04:08 | -35.82253 | -72.05881 | 29697 ft | 448 kts | 16° |
| 2026-04-22 04:08 | -35.79406 | -72.04276 | 30006 ft | 450 kts | 16° |
| 2026-04-22 04:08 | -35.76550 | -72.02668 | 30222 ft | 452 kts | 16° |
| 2026-04-22 04:08 | -35.73732 | -72.01074 | 30256 ft | 439 kts | 16° |
| 2026-04-22 04:09 | -35.68242 | -71.97965 | 30257 ft | 431 kts | 15° |
| 2026-04-22 04:09 | -35.62791 | -71.94909 | 30246 ft | 430 kts | 15° |
| 2026-04-22 04:10 | -35.57337 | -71.91867 | 30250 ft | 431 kts | 15° |
| 2026-04-22 04:10 | -35.51865 | -71.88809 | 30255 ft | 432 kts | 16° |
| 2026-04-22 04:11 | -35.46374 | -71.85722 | 30252 ft | 439 kts | 16° |
| 2026-04-22 04:11 | -35.40682 | -71.82555 | 30248 ft | 459 kts | 16° |
| 2026-04-22 04:12 | -35.34789 | -71.79278 | 30245 ft | 476 kts | 17° |
| 2026-04-22 04:12 | -35.28701 | -71.75888 | 30238 ft | 483 kts | 17° |
| 2026-04-22 04:13 | -35.22575 | -71.72476 | 30236 ft | 484 kts | 17° |
| 2026-04-22 04:13 | -35.17440 | -71.69618 | 30246 ft | 484 kts | 17° |
| 2026-04-22 04:14 | -35.11350 | -71.66242 | 30245 ft | 484 kts | 17° |
| 2026-04-22 04:14 | -35.05218 | -71.62853 | 30222 ft | 483 kts | 17° |
| 2026-04-22 04:15 | -34.99082 | -71.59455 | 30243 ft | 484 kts | 17° |
| 2026-04-22 04:15 | -34.92941 | -71.56066 | 30245 ft | 484 kts | 17° |
| 2026-04-22 04:16 | -34.83724 | -71.51007 | 30220 ft | 484 kts | 17° |
| 2026-04-22 04:17 | -34.77616 | -71.47651 | 30202 ft | 485 kts | 17° |
| 2026-04-22 04:17 | -34.71456 | -71.44276 | 30204 ft | 484 kts | 17° |
| 2026-04-22 04:17 | -34.68430 | -71.42616 | 30034 ft | 470 kts | 17° |
| 2026-04-22 04:18 | -34.65497 | -71.41004 | 29752 ft | 457 kts | 17° |
| 2026-04-22 04:18 | -34.62634 | -71.39466 | 29475 ft | 443 kts | 15° |
| 2026-04-22 04:18 | -34.59828 | -71.38039 | 29200 ft | 431 kts | 14° |
| 2026-04-22 04:18 | -34.57081 | -71.36700 | 28929 ft | 422 kts | 13° |
| 2026-04-22 04:19 | -34.54358 | -71.35406 | 28634 ft | 418 kts | 13° |
| 2026-04-22 04:19 | -34.51662 | -71.34130 | 28369 ft | 415 kts | 13° |
| 2026-04-22 04:19 | -34.48977 | -71.32847 | 28101 ft | 414 kts | 14° |
| 2026-04-22 04:19 | -34.46308 | -71.31553 | 27839 ft | 412 kts | 14° |
| 2026-04-22 04:20 | -34.43659 | -71.30257 | 27580 ft | 410 kts | 14° |
| 2026-04-22 04:20 | -34.41021 | -71.28958 | 27323 ft | 408 kts | 14° |
| 2026-04-22 04:20 | -34.38394 | -71.27665 | 27061 ft | 406 kts | 14° |
| 2026-04-22 04:20 | -34.35784 | -71.26377 | 26815 ft | 405 kts | 14° |
| 2026-04-22 04:21 | -34.33185 | -71.25094 | 26562 ft | 403 kts | 14° |
| 2026-04-22 04:21 | -34.30610 | -71.23826 | 26274 ft | 395 kts | 14° |
| 2026-04-22 04:21 | -34.28074 | -71.22581 | 25811 ft | 391 kts | 14° |
| 2026-04-22 04:21 | -34.25597 | -71.21367 | 25422 ft | 385 kts | 14° |
| 2026-04-22 04:22 | -34.23127 | -71.20157 | 25010 ft | 381 kts | 14° |
| 2026-04-22 04:22 | -34.20686 | -71.18963 | 24607 ft | 377 kts | 14° |
| 2026-04-22 04:22 | -34.18265 | -71.17783 | 24202 ft | 373 kts | 13° |
| 2026-04-22 04:22 | -34.15874 | -71.16617 | 23800 ft | 369 kts | 14° |
| 2026-04-22 04:23 | -34.13499 | -71.15459 | 23354 ft | 366 kts | 14° |
| 2026-04-22 04:23 | -34.11153 | -71.14317 | 22953 ft | 361 kts | 14° |
| 2026-04-22 04:23 | -34.08837 | -71.13190 | 22565 ft | 356 kts | 14° |
| 2026-04-22 04:23 | -34.06552 | -71.12080 | 22166 ft | 352 kts | 14° |
| 2026-04-22 04:24 | -34.04284 | -71.10982 | 21779 ft | 349 kts | 14° |
| 2026-04-22 04:24 | -34.02042 | -71.09895 | 21392 ft | 346 kts | 14° |
| 2026-04-22 04:24 | -33.99824 | -71.08819 | 20997 ft | 342 kts | 15° |
| 2026-04-22 04:24 | -33.97624 | -71.07755 | 20613 ft | 340 kts | 15° |
| 2026-04-22 04:25 | -33.95439 | -71.06700 | 20228 ft | 338 kts | 15° |
| 2026-04-22 04:25 | -33.93264 | -71.05651 | 19845 ft | 336 kts | 15° |
| 2026-04-22 04:25 | -33.91102 | -71.04608 | 19478 ft | 334 kts | 15° |
| 2026-04-22 04:25 | -33.88971 | -71.03575 | 19088 ft | 333 kts | 15° |
| 2026-04-22 04:26 | -33.86826 | -71.02535 | 18706 ft | 332 kts | 16° |
| 2026-04-22 04:26 | -33.84696 | -71.01500 | 18300 ft | 328 kts | 16° |
| 2026-04-22 04:26 | -33.82585 | -71.00477 | 17912 ft | 326 kts | 17° |
| 2026-04-22 04:26 | -33.80484 | -70.99461 | 17555 ft | 324 kts | 16° |
| 2026-04-22 04:27 | -33.78400 | -70.98456 | 17186 ft | 322 kts | 16° |
| 2026-04-22 04:27 | -33.76327 | -70.97455 | 16841 ft | 319 kts | 17° |
| 2026-04-22 04:27 | -33.74275 | -70.96462 | 16466 ft | 317 kts | 17° |
| 2026-04-22 04:27 | -33.72238 | -70.95477 | 16130 ft | 314 kts | 17° |
| 2026-04-22 04:28 | -33.70215 | -70.94502 | 15788 ft | 312 kts | 17° |
| 2026-04-22 04:28 | -33.68205 | -70.93533 | 15445 ft | 310 kts | 17° |
| 2026-04-22 04:28 | -33.66207 | -70.92571 | 15095 ft | 308 kts | 17° |
| 2026-04-22 04:28 | -33.64222 | -70.91617 | 14760 ft | 306 kts | 17° |
| 2026-04-22 04:29 | -33.62251 | -70.90668 | 14419 ft | 304 kts | 17° |
| 2026-04-22 04:29 | -33.60295 | -70.89727 | 14074 ft | 302 kts | 17° |
| 2026-04-22 04:29 | -33.58346 | -70.88790 | 13707 ft | 300 kts | 17° |
| 2026-04-22 04:29 | -33.56436 | -70.87795 | 13353 ft | 299 kts | 24° |
| 2026-04-22 04:30 | -33.54647 | -70.86520 | 12989 ft | 297 kts | 27° |
| 2026-04-22 04:30 | -33.52897 | -70.85222 | 12642 ft | 295 kts | 27° |
| 2026-04-22 04:30 | -33.51162 | -70.83941 | 12290 ft | 292 kts | 27° |
| 2026-04-22 04:30 | -33.49438 | -70.82670 | 11934 ft | 289 kts | 27° |
| 2026-04-22 04:31 | -33.47730 | -70.81416 | 11579 ft | 287 kts | 26° |
| 2026-04-22 04:31 | -33.45923 | -70.80488 | 11224 ft | 279 kts | 11° |
| 2026-04-22 04:31 | -33.44023 | -70.80173 | 10884 ft | 274 kts | 358° |
| 2026-04-22 04:31 | -33.42171 | -70.80436 | 10547 ft | 270 kts | 344° |
| 2026-04-22 04:32 | -33.40440 | -70.81254 | 10423 ft | 268 kts | 331° |
| 2026-04-22 04:32 | -33.38873 | -70.82476 | 10301 ft | 269 kts | 326° |
| 2026-04-22 04:32 | -33.37322 | -70.83731 | 9969 ft | 268 kts | 327° |
| 2026-04-22 04:32 | -33.35782 | -70.84973 | 9238 ft | 265 kts | 327° |
| 2026-04-22 04:33 | -33.34271 | -70.86190 | 8532 ft | 259 kts | 327° |
| 2026-04-22 04:33 | -33.32801 | -70.87371 | 8104 ft | 245 kts | 327° |
| 2026-04-22 04:33 | -33.31445 | -70.88459 | 8005 ft | 229 kts | 327° |
| 2026-04-22 04:33 | -33.30123 | -70.89520 | 7727 ft | 228 kts | 327° |
| 2026-04-22 04:34 | -33.28804 | -70.90579 | 7574 ft | 228 kts | 327° |
| 2026-04-22 04:34 | -33.27494 | -70.91630 | 7459 ft | 225 kts | 327° |
| 2026-04-22 04:34 | -33.26188 | -70.92652 | 7319 ft | 225 kts | 332° |
| 2026-04-22 04:34 | -33.24687 | -70.93253 | 6862 ft | 232 kts | 353° |
| 2026-04-22 04:35 | -33.23056 | -70.93161 | 6406 ft | 239 kts | 13° |
| 2026-04-22 04:35 | -33.21524 | -70.92354 | 5963 ft | 244 kts | 34° |
| 2026-04-22 04:35 | -33.20332 | -70.90928 | 5507 ft | 250 kts | 56° |
| 2026-04-22 04:35 | -33.19675 | -70.89032 | 5325 ft | 243 kts | 79° |
| 2026-04-22 04:36 | -33.19633 | -70.87069 | 5251 ft | 232 kts | 99° |
| 2026-04-22 04:36 | -33.20156 | -70.85261 | 5165 ft | 232 kts | 118° |
| 2026-04-22 04:36 | -33.21094 | -70.83687 | 4854 ft | 231 kts | 133° |
| 2026-04-22 04:36 | -33.22306 | -70.82452 | 4511 ft | 227 kts | 147° |
| 2026-04-22 04:37 | -33.23697 | -70.81601 | 4204 ft | 222 kts | 160° |
| 2026-04-22 04:37 | -33.25177 | -70.81162 | 3931 ft | 215 kts | 173° |
| 2026-04-22 04:37 | -33.26625 | -70.81033 | 3648 ft | 202 kts | 176° |
| 2026-04-22 04:37 | -33.27967 | -70.80921 | 3379 ft | 185 kts | 176° |
| 2026-04-22 04:38 | -33.29178 | -70.80818 | 3147 ft | 165 kts | 176° |
| 2026-04-22 04:38 | -33.30279 | -70.80737 | 2921 ft | 154 kts | 177° |
| 2026-04-22 04:38 | -33.31330 | -70.80679 | 2721 ft | 149 kts | 177° |
| 2026-04-22 04:38 | -33.32347 | -70.80625 | 2523 ft | 148 kts | 177° |
| 2026-04-22 04:39 | -33.33374 | -70.80573 | 2336 ft | 147 kts | 176° |
| 2026-04-22 04:39 | -33.34389 | -70.80524 | 2154 ft | 145 kts | 175° |
| 2026-04-22 04:39 | -33.35392 | -70.80451 | 1968 ft | 144 kts | 176° |
| 2026-04-22 04:39 | -33.36391 | -70.80413 | 1816 ft | 143 kts | 177° |
| 2026-04-22 04:40 | -33.37381 | -70.80357 | 1608 ft | 141 kts | 177° |
| 2026-04-22 04:40 | -33.38310 | -70.80317 | 1573 ft | 121 kts | 176° |
| 2026-04-22 04:40 | -33.38945 | -70.80280 | 1574 ft | 65 kts | 178° |
| 2026-04-22 04:40 | -33.39239 | -70.80261 | 1572 ft | 31 kts | 167° |
| 2026-04-22 04:41 | -33.39417 | -70.80138 | 1568 ft | 30 kts | 147° |
| 2026-04-22 04:41 | -33.39515 | -70.80042 | 1566 ft | 12 kts | 122° |
| 2026-04-22 04:41 | -33.39530 | -70.79946 | 1565 ft | 12 kts | 89° |
| 2026-04-22 04:41 | -33.39527 | -70.79846 | 1565 ft | 12 kts | 88° |
| 2026-04-22 04:42 | -33.39525 | -70.79748 | 1565 ft | 12 kts | 86° |
| 2026-04-22 04:42 | -33.39520 | -70.79652 | 1565 ft | 11 kts | 86° |
| 2026-04-22 04:42 | -33.39515 | -70.79558 | 1565 ft | 11 kts | 86° |
| 2026-04-22 04:42 | -33.39512 | -70.79467 | 1564 ft | 11 kts | 87° |
| 2026-04-22 04:43 | -33.39508 | -70.79379 | 1564 ft | 10 kts | 87° |
| 2026-04-22 04:43 | -33.39505 | -70.79294 | 1564 ft | 10 kts | 86° |
| 2026-04-22 04:43 | -33.39501 | -70.79213 | 1564 ft | 9 kts | 87° |
| 2026-04-22 04:43 | -33.39499 | -70.79148 | 1564 ft | 6 kts | 87° |
| 2026-04-22 04:44 | -33.39497 | -70.79109 | 1564 ft | 3 kts | 88° |
| 2026-04-22 04:44 | -33.39497 | -70.79085 | 1564 ft | 3 kts | 88° |
| 2026-04-22 04:44 | -33.39503 | -70.79046 | 1564 ft | 6 kts | 136° |
| 2026-04-22 04:44 | -33.39544 | -70.79054 | 1564 ft | 5 kts | 193° |
| 2026-04-22 04:45 | -33.39562 | -70.79059 | 1564 ft | 0 kts | 193° |
| 2026-04-22 04:45 | -33.39563 | -70.79059 | 1564 ft | 1 kts | 193° |
| 2026-04-22 04:45 | -33.39569 | -70.79061 | 1564 ft | 0 kts | 193° |